sensor_id;sensor_type;location;lat;lon;timestamp;pressure;altitude;pressure_sealevel;temperature;humidity
61324;BME280;47203;48.428;11.974;2022-12-18T08:31:15;98179.28;;;-0.93;59.03
61324;BME280;47203;48.428;11.974;2022-12-18T08:33:20;98177.22;;;-0.89;58.86
61324;BME280;47203;48.428;11.974;2022-12-18T08:35:26;98183.69;;;-0.85;58.82
61324;BME280;47203;48.428;11.974;2022-12-18T08:37:38;98178.19;;;-0.82;59.04
61324;BME280;47203;48.428;11.974;2022-12-18T08:39:43;98175.31;;;-0.79;59.01
61324;BME280;47203;48.428;11.974;2022-12-18T08:41:49;98176.13;;;-0.78;58.83
61324;BME280;47203;48.428;11.974;2022-12-18T08:44:11;98183.41;;;-0.74;59.01
61324;BME280;47203;48.428;11.974;2022-12-18T08:46:37;98186.50;;;-0.70;59.16
61324;BME280;47203;48.428;11.974;2022-12-18T08:48:43;98183.75;;;-0.68;58.94
61324;BME280;47203;48.428;11.974;2022-12-18T08:50:55;98184.41;;;-0.66;58.87
61324;BME280;47203;48.428;11.974;2022-12-18T08:53:01;98178.44;;;-0.67;58.87
61324;BME280;47203;48.428;11.974;2022-12-18T08:55:09;98191.53;;;-0.68;59.09
61324;BME280;47203;48.428;11.974;2022-12-18T08:57:14;98197.81;;;-0.71;58.89
61324;BME280;47203;48.428;11.974;2022-12-18T08:59:20;98208.16;;;-0.71;58.91
61324;BME280;47203;48.428;11.974;2022-12-18T09:01:25;98206.22;;;-0.69;59.02
61324;BME280;47203;48.428;11.974;2022-12-18T09:03:34;98205.09;;;-0.66;59.17
61324;BME280;47203;48.428;11.974;2022-12-18T09:05:41;98208.47;;;-0.66;59.05
61324;BME280;47203;48.428;11.974;2022-12-18T09:07:46;98213.50;;;-0.64;59.02
61324;BME280;47203;48.428;11.974;2022-12-18T09:09:51;98203.97;;;-0.64;58.89
61324;BME280;47203;48.428;11.974;2022-12-18T09:11:57;98204.63;;;-0.62;59.02
61324;BME280;47203;48.428;11.974;2022-12-18T09:14:03;98204.47;;;-0.60;58.89
61324;BME280;47203;48.428;11.974;2022-12-18T09:16:08;98205.28;;;-0.60;58.82
61324;BME280;47203;48.428;11.974;2022-12-18T09:18:15;98206.72;;;-0.57;59.14
61324;BME280;47203;48.428;11.974;2022-12-18T09:20:23;98197.69;;;-0.53;58.96
61324;BME280;47203;48.428;11.974;2022-12-18T09:22:31;98187.03;;;-0.50;58.96
61324;BME280;47203;48.428;11.974;2022-12-18T09:24:36;98193.53;;;-0.46;58.88
61324;BME280;47203;48.428;11.974;2022-12-18T09:26:41;98185.44;;;-0.43;58.87
61324;BME280;47203;48.428;11.974;2022-12-18T09:28:50;98190.31;;;-0.40;58.88
61324;BME280;47203;48.428;11.974;2022-12-18T09:30:56;98189.34;;;-0.39;58.82
61324;BME280;47203;48.428;11.974;2022-12-18T09:33:01;98180.63;;;-0.38;59.08
61324;BME280;47203;48.428;11.974;2022-12-18T09:35:08;98188.06;;;-0.34;58.87
61324;BME280;47203;48.428;11.974;2022-12-18T09:37:16;98182.72;;;-0.33;58.86
61324;BME280;47203;48.428;11.974;2022-12-18T09:39:22;98186.94;;;-0.32;58.73
61324;BME280;47203;48.428;11.974;2022-12-18T09:41:42;98186.78;;;-0.30;58.84
61324;BME280;47203;48.428;11.974;2022-12-18T09:43:52;98185.81;;;-0.29;58.72
61324;BME280;47203;48.428;11.974;2022-12-18T09:46:07;98182.25;;;-0.28;58.89
61324;BME280;47203;48.428;11.974;2022-12-18T09:48:19;98185.50;;;-0.26;58.79
61324;BME280;47203;48.428;11.974;2022-12-18T09:50:32;98181.13;;;-0.26;58.67
61324;BME280;47203;48.428;11.974;2022-12-18T09:52:45;98179.34;;;-0.25;58.98
61324;BME280;47203;48.428;11.974;2022-12-18T09:55:00;98174.16;;;-0.25;58.93
61324;BME280;47203;48.428;11.974;2022-12-18T09:57:12;98175.78;;;-0.24;58.75
61324;BME280;47203;48.428;11.974;2022-12-18T09:59:24;98178.38;;;-0.24;58.86
61324;BME280;47203;48.428;11.974;2022-12-18T10:01:32;98167.06;;;-0.23;58.64
61324;BME280;47203;48.428;11.974;2022-12-18T10:03:45;98171.41;;;-0.24;58.87
61324;BME280;47203;48.428;11.974;2022-12-18T10:06:01;98161.06;;;-0.24;58.62
61324;BME280;47203;48.428;11.974;2022-12-18T10:08:22;98154.47;;;-0.26;58.58
61324;BME280;47203;48.428;11.974;2022-12-18T10:10:38;98153.16;;;-0.30;58.54
61324;BME280;47203;48.428;11.974;2022-12-18T10:12:59;98147.47;;;-0.34;58.61
61324;BME280;47203;48.428;11.974;2022-12-18T10:15:19;98144.41;;;-0.38;58.69
61324;BME280;47203;48.428;11.974;2022-12-18T10:17:41;98143.41;;;-0.37;58.63
61324;BME280;47203;48.428;11.974;2022-12-18T10:19:56;98145.19;;;-0.37;58.63
61324;BME280;47203;48.428;11.974;2022-12-18T10:22:30;98143.28;;;-0.35;58.56
61324;BME280;47203;48.428;11.974;2022-12-18T10:24:49;98139.88;;;-0.36;58.86
61324;BME280;47203;48.428;11.974;2022-12-18T10:27:12;98141.66;;;-0.36;58.59
61324;BME280;47203;48.428;11.974;2022-12-18T10:29:19;98135.38;;;-0.33;58.89
61324;BME280;47203;48.428;11.974;2022-12-18T10:31:25;98136.16;;;-0.33;58.57
61324;BME280;47203;48.428;11.974;2022-12-18T10:33:33;98136.00;;;-0.31;58.54
61324;BME280;47203;48.428;11.974;2022-12-18T10:35:41;98141.97;;;-0.31;58.27
61324;BME280;47203;48.428;11.974;2022-12-18T10:38:06;98138.44;;;-0.30;58.57
61324;BME280;47203;48.428;11.974;2022-12-18T10:40:16;98143.59;;;-0.30;58.47
61324;BME280;47203;48.428;11.974;2022-12-18T10:42:24;98140.06;;;-0.29;58.59
61324;BME280;47203;48.428;11.974;2022-12-18T10:44:29;98138.94;;;-0.26;58.70
61324;BME280;47203;48.428;11.974;2022-12-18T10:46:35;98136.97;;;-0.24;58.53
61324;BME280;47203;48.428;11.974;2022-12-18T10:48:52;98138.59;;;-0.23;58.49
61324;BME280;47203;48.428;11.974;2022-12-18T10:50:58;98136.50;;;-0.20;58.50
61324;BME280;47203;48.428;11.974;2022-12-18T10:53:21;98141.50;;;-0.18;58.38
61324;BME280;47203;48.428;11.974;2022-12-18T10:55:34;98130.19;;;-0.17;58.64
61324;BME280;47203;48.428;11.974;2022-12-18T10:57:41;98137.97;;;-0.17;58.57
61324;BME280;47203;48.428;11.974;2022-12-18T10:59:53;98143.13;;;-0.17;58.47
61324;BME280;47203;48.428;11.974;2022-12-18T11:01:58;98138.75;;;-0.16;58.64
61324;BME280;47203;48.428;11.974;2022-12-18T11:04:09;98139.59;;;-0.16;58.41
61324;BME280;47203;48.428;11.974;2022-12-18T11:06:17;98137.00;;;-0.16;58.46
61324;BME280;47203;48.428;11.974;2022-12-18T11:08:24;98124.06;;;-0.16;58.60
61324;BME280;47203;48.428;11.974;2022-12-18T11:10:35;98135.06;;;-0.14;58.42
61324;BME280;47203;48.428;11.974;2022-12-18T11:12:43;98128.75;;;-0.11;58.66
61324;BME280;47203;48.428;11.974;2022-12-18T11:14:51;98131.81;;;-0.08;58.54
61324;BME280;47203;48.428;11.974;2022-12-18T11:17:00;98144.44;;;-0.05;58.82
61324;BME280;47203;48.428;11.974;2022-12-18T11:19:36;98137.97;;;-0.01;58.73
61324;BME280;47203;48.428;11.974;2022-12-18T11:21:42;98137.63;;;0.03;58.70
61324;BME280;47203;48.428;11.974;2022-12-18T11:23:51;98150.09;;;0.07;58.54
61324;BME280;47203;48.428;11.974;2022-12-18T11:26:02;98149.13;;;0.08;58.77
61324;BME280;47203;48.428;11.974;2022-12-18T11:28:37;98154.16;;;0.10;58.49
61324;BME280;47203;48.428;11.974;2022-12-18T11:30:43;98152.22;;;0.12;58.54
61324;BME280;47203;48.428;11.974;2022-12-18T11:32:50;98144.94;;;0.15;58.77
61324;BME280;47203;48.428;11.974;2022-12-18T11:35:08;98138.63;;;0.18;58.73
61324;BME280;47203;48.428;11.974;2022-12-18T11:37:17;98130.69;;;0.20;58.51
61324;BME280;47203;48.428;11.974;2022-12-18T11:39:34;98133.13;;;0.21;58.37
61324;BME280;47203;48.428;11.974;2022-12-18T11:41:52;98127.78;;;0.23;58.57
61324;BME280;47203;48.428;11.974;2022-12-18T11:44:14;98126.97;;;0.22;58.65
61324;BME280;47203;48.428;11.974;2022-12-18T11:46:27;98125.03;;;0.24;58.74
61324;BME280;47203;48.428;11.974;2022-12-18T11:48:44;98129.06;;;0.27;58.74
61324;BME280;47203;48.428;11.974;2022-12-18T11:50:53;98121.94;;;0.29;58.54
61324;BME280;47203;48.428;11.974;2022-12-18T11:53:00;98129.38;;;0.32;58.76
61324;BME280;47203;48.428;11.974;2022-12-18T11:55:13;98120.63;;;0.33;58.75
61324;BME280;47203;48.428;11.974;2022-12-18T11:57:33;98124.69;;;0.36;58.53
61324;BME280;47203;48.428;11.974;2022-12-18T11:59:51;98133.09;;;0.38;58.73
61324;BME280;47203;48.428;11.974;2022-12-18T12:02:22;98129.38;;;0.40;58.43
61324;BME280;47203;48.428;11.974;2022-12-18T12:04:48;98123.41;;;0.40;58.61
61324;BME280;47203;48.428;11.974;2022-12-18T12:07:13;98121.44;;;0.42;58.77
61324;BME280;47203;48.428;11.974;2022-12-18T12:09:31;98117.06;;;0.42;58.50
61324;BME280;47203;48.428;11.974;2022-12-18T12:11:53;98111.88;;;0.42;58.77
61324;BME280;47203;48.428;11.974;2022-12-18T12:14:25;98101.34;;;0.44;58.22
61324;BME280;47203;48.428;11.974;2022-12-18T12:16:41;98104.09;;;0.42;58.40
61324;BME280;47203;48.428;11.974;2022-12-18T12:19:06;98098.91;;;0.42;58.39
61324;BME280;47203;48.428;11.974;2022-12-18T12:21:23;98097.31;;;0.41;58.50
61324;BME280;47203;48.428;11.974;2022-12-18T12:23:41;98097.16;;;0.43;58.23
61324;BME280;47203;48.428;11.974;2022-12-18T12:25:58;98097.97;;;0.43;58.52
61324;BME280;47203;48.428;11.974;2022-12-18T12:28:20;98091.97;;;0.43;58.20
61324;BME280;47203;48.428;11.974;2022-12-18T12:30:42;98090.34;;;0.42;58.18
61324;BME280;47203;48.428;11.974;2022-12-18T12:33:13;98090.34;;;0.42;58.37
61324;BME280;47203;48.428;11.974;2022-12-18T12:35:32;98093.28;;;0.39;58.18
61324;BME280;47203;48.428;11.974;2022-12-18T12:37:52;98088.25;;;0.37;58.09
61324;BME280;47203;48.428;11.974;2022-12-18T12:40:03;98091.03;;;0.36;58.04
61324;BME280;47203;48.428;11.974;2022-12-18T12:42:35;98096.53;;;0.32;58.31
61324;BME280;47203;48.428;11.974;2022-12-18T12:45:01;98097.03;;;0.28;58.18
61324;BME280;47203;48.428;11.974;2022-12-18T12:47:19;98087.13;;;0.23;57.89
61324;BME280;47203;48.428;11.974;2022-12-18T12:49:29;98090.06;;;0.20;58.10
61324;BME280;47203;48.428;11.974;2022-12-18T12:52:04;98089.75;;;0.15;58.02
61324;BME280;47203;48.428;11.974;2022-12-18T12:54:19;98087.50;;;0.12;58.05
61324;BME280;47203;48.428;11.974;2022-12-18T12:56:36;98085.06;;;0.10;58.03
61324;BME280;47203;48.428;11.974;2022-12-18T12:58:55;98087.78;;;0.09;58.11
61324;BME280;47203;48.428;11.974;2022-12-18T13:01:18;98088.78;;;0.08;58.02
61324;BME280;47203;48.428;11.974;2022-12-18T13:03:46;98095.72;;;0.07;57.91
61324;BME280;47203;48.428;11.974;2022-12-18T13:05:59;98095.72;;;0.07;58.13
61324;BME280;47203;48.428;11.974;2022-12-18T13:08:09;98095.72;;;0.07;58.06
61324;BME280;47203;48.428;11.974;2022-12-18T13:10:36;98102.53;;;0.08;58.22
61324;BME280;47203;48.428;11.974;2022-12-18T13:12:53;98116.28;;;0.09;58.17
61324;BME280;47203;48.428;11.974;2022-12-18T13:15:19;98107.53;;;0.10;58.04
61324;BME280;47203;48.428;11.974;2022-12-18T13:17:30;98101.56;;;0.09;58.14
61324;BME280;47203;48.428;11.974;2022-12-18T13:19:39;98111.09;;;0.09;58.28
61324;BME280;47203;48.428;11.974;2022-12-18T13:21:54;98120.66;;;0.08;58.00
61324;BME280;47203;48.428;11.974;2022-12-18T13:24:23;98112.25;;;0.06;58.05
61324;BME280;47203;48.428;11.974;2022-12-18T13:26:32;98114.19;;;0.04;58.16
61324;BME280;47203;48.428;11.974;2022-12-18T13:28:53;98109.00;;;0.04;57.93
61324;BME280;47203;48.428;11.974;2022-12-18T13:30:59;98111.75;;;0.03;58.13
61324;BME280;47203;48.428;11.974;2022-12-18T13:33:43;98108.19;;;0.04;58.13
61324;BME280;47203;48.428;11.974;2022-12-18T13:36:26;98104.97;;;0.02;58.00
61324;BME280;47203;48.428;11.974;2022-12-18T13:38:37;98099.13;;;-0.01;58.13
61324;BME280;47203;48.428;11.974;2022-12-18T13:40:58;98101.09;;;-0.03;57.97
61324;BME280;47203;48.428;11.974;2022-12-18T13:45:46;98106.44;;;-0.04;57.86
61324;BME280;47203;48.428;11.974;2022-12-18T13:47:53;98109.97;;;-0.05;58.00
61324;BME280;47203;48.428;11.974;2022-12-18T13:50:02;98098.81;;;-0.06;57.97
61324;BME280;47203;48.428;11.974;2022-12-18T13:52:24;98107.56;;;-0.07;57.64
61324;BME280;47203;48.428;11.974;2022-12-18T13:54:35;98092.03;;;-0.07;57.67
61324;BME280;47203;48.428;11.974;2022-12-18T13:56:45;98093.66;;;-0.06;57.73
61324;BME280;47203;48.428;11.974;2022-12-18T13:59:18;98099.00;;;-0.07;57.75
61324;BME280;47203;48.428;11.974;2022-12-18T14:01:26;98099.16;;;-0.09;57.89
61324;BME280;47203;48.428;11.974;2022-12-18T14:03:32;98104.47;;;-0.10;57.80
61324;BME280;47203;48.428;11.974;2022-12-18T14:05:39;98102.88;;;-0.11;57.82
61324;BME280;47203;48.428;11.974;2022-12-18T14:07:49;98103.03;;;-0.13;57.86
61324;BME280;47203;48.428;11.974;2022-12-18T14:09:58;98098.03;;;-0.14;57.86
61324;BME280;47203;48.428;11.974;2022-12-18T14:12:29;98102.53;;;-0.16;57.87
61324;BME280;47203;48.428;11.974;2022-12-18T14:14:52;98100.28;;;-0.20;57.76
61324;BME280;47203;48.428;11.974;2022-12-18T14:16:59;98102.06;;;-0.20;57.72
61324;BME280;47203;48.428;11.974;2022-12-18T14:19:15;98098.47;;;-0.19;57.81
61324;BME280;47203;48.428;11.974;2022-12-18T14:21:24;98095.88;;;-0.19;57.84
61324;BME280;47203;48.428;11.974;2022-12-18T14:23:37;98098.47;;;-0.19;57.70
61324;BME280;47203;48.428;11.974;2022-12-18T14:25:46;98091.88;;;-0.22;57.88
61324;BME280;47203;48.428;11.974;2022-12-18T14:28:02;98096.53;;;-0.25;57.79
61324;BME280;47203;48.428;11.974;2022-12-18T14:30:25;98094.13;;;-0.27;57.63
61324;BME280;47203;48.428;11.974;2022-12-18T14:32:31;98098.50;;;-0.27;57.90
61324;BME280;47203;48.428;11.974;2022-12-18T14:34:37;98099.28;;;-0.27;57.97
61324;BME280;47203;48.428;11.974;2022-12-18T14:36:52;98104.31;;;-0.25;57.96
61324;BME280;47203;48.428;11.974;2022-12-18T14:39:01;98104.97;;;-0.23;57.95
61324;BME280;47203;48.428;11.974;2022-12-18T14:41:13;98108.34;;;-0.23;57.92
61324;BME280;47203;48.428;11.974;2022-12-18T14:43:18;98107.56;;;-0.23;57.77
61324;BME280;47203;48.428;11.974;2022-12-18T14:45:36;98110.94;;;-0.23;57.68
61324;BME280;47203;48.428;11.974;2022-12-18T14:47:44;98105.13;;;-0.25;57.91
61324;BME280;47203;48.428;11.974;2022-12-18T14:49:50;98101.06;;;-0.27;57.85
61324;BME280;47203;48.428;11.974;2022-12-18T14:51:57;98100.41;;;-0.29;57.65
61324;BME280;47203;48.428;11.974;2022-12-18T14:54:16;98084.25;;;-0.31;57.71
61324;BME280;47203;48.428;11.974;2022-12-18T14:56:26;98079.25;;;-0.33;57.63
61324;BME280;47203;48.428;11.974;2022-12-18T14:58:32;98083.63;;;-0.33;57.76
61324;BME280;47203;48.428;11.974;2022-12-18T15:00:42;98082.94;;;-0.36;57.77
61324;BME280;47203;48.428;11.974;2022-12-18T15:02:51;98078.91;;;-0.38;57.73
61324;BME280;47203;48.428;11.974;2022-12-18T15:05:03;98086.66;;;-0.38;57.63
61324;BME280;47203;48.428;11.974;2022-12-18T15:07:18;98077.31;;;-0.39;57.81
61324;BME280;47203;48.428;11.974;2022-12-18T15:09:26;98079.88;;;-0.39;57.80
61324;BME280;47203;48.428;11.974;2022-12-18T15:11:42;98084.22;;;-0.40;57.83
61324;BME280;47203;48.428;11.974;2022-12-18T15:13:49;98088.44;;;-0.39;57.87
61324;BME280;47203;48.428;11.974;2022-12-18T15:15:56;98074.88;;;-0.41;57.78
61324;BME280;47203;48.428;11.974;2022-12-18T15:18:10;98076.78;;;-0.43;57.66
61324;BME280;47203;48.428;11.974;2022-12-18T15:20:18;98080.38;;;-0.44;57.93
61324;BME280;47203;48.428;11.974;2022-12-18T15:22:27;98082.13;;;-0.44;57.59
61324;BME280;47203;48.428;11.974;2022-12-18T15:24:39;98083.91;;;-0.45;57.64
61324;BME280;47203;48.428;11.974;2022-12-18T15:26:45;98093.59;;;-0.47;57.67
61324;BME280;47203;48.428;11.974;2022-12-18T15:28:53;98090.06;;;-0.46;57.72
61324;BME280;47203;48.428;11.974;2022-12-18T15:31:17;98088.25;;;-0.45;57.89
61324;BME280;47203;48.428;11.974;2022-12-18T15:33:30;98083.91;;;-0.45;57.83
61324;BME280;47203;48.428;11.974;2022-12-18T15:35:36;98084.56;;;-0.43;57.96
61324;BME280;47203;48.428;11.974;2022-12-18T15:37:49;98083.75;;;-0.43;57.81
61324;BME280;47203;48.428;11.974;2022-12-18T15:39:57;98088.78;;;-0.42;57.64
61324;BME280;47203;48.428;11.974;2022-12-18T15:42:03;98090.56;;;-0.42;57.97
61324;BME280;47203;48.428;11.974;2022-12-18T15:44:23;98091.34;;;-0.42;57.89
61324;BME280;47203;48.428;11.974;2022-12-18T15:46:29;98105.91;;;-0.41;57.78
61324;BME280;47203;48.428;11.974;2022-12-18T15:48:39;98108.50;;;-0.41;57.73
61324;BME280;47203;48.428;11.974;2022-12-18T15:50:45;98114.47;;;-0.40;57.78
61324;BME280;47203;48.428;11.974;2022-12-18T15:52:53;98103.16;;;-0.39;57.84
61324;BME280;47203;48.428;11.974;2022-12-18T15:55:03;98106.56;;;-0.39;57.94
61324;BME280;47203;48.428;11.974;2022-12-18T15:57:21;98099.91;;;-0.41;57.83
61324;BME280;47203;48.428;11.974;2022-12-18T15:59:29;98103.34;;;-0.41;57.77
61324;BME280;47203;48.428;11.974;2022-12-18T16:01:34;98100.75;;;-0.41;57.87
61324;BME280;47203;48.428;11.974;2022-12-18T16:03:44;98104.94;;;-0.40;58.04
61324;BME280;47203;48.428;11.974;2022-12-18T16:05:49;98100.44;;;-0.38;57.93
61324;BME280;47203;48.428;11.974;2022-12-18T16:07:55;98103.66;;;-0.36;58.01
61324;BME280;47203;48.428;11.974;2022-12-18T16:10:04;98103.66;;;-0.36;58.03
61324;BME280;47203;48.428;11.974;2022-12-18T16:12:17;98099.44;;;-0.37;57.96
61324;BME280;47203;48.428;11.974;2022-12-18T16:14:26;98096.84;;;-0.37;58.05
61324;BME280;47203;48.428;11.974;2022-12-18T16:16:32;98101.88;;;-0.35;57.83
61324;BME280;47203;48.428;11.974;2022-12-18T16:18:38;98096.72;;;-0.35;57.99
61324;BME280;47203;48.428;11.974;2022-12-18T16:20:43;98104.47;;;-0.35;57.92
61324;BME280;47203;48.428;11.974;2022-12-18T16:22:50;98100.91;;;-0.34;58.04
61324;BME280;47203;48.428;11.974;2022-12-18T16:24:57;98094.75;;;-0.33;58.05
61324;BME280;47203;48.428;11.974;2022-12-18T16:27:05;98083.63;;;-0.33;57.98
61324;BME280;47203;48.428;11.974;2022-12-18T16:29:11;98078.59;;;-0.35;58.07
61324;BME280;47203;48.428;11.974;2022-12-18T16:31:16;98078.44;;;-0.33;58.02
61324;BME280;47203;48.428;11.974;2022-12-18T16:33:21;98075.84;;;-0.33;57.87
61324;BME280;47203;48.428;11.974;2022-12-18T16:35:27;98078.59;;;-0.35;58.05
61324;BME280;47203;48.428;11.974;2022-12-18T16:37:33;98076.16;;;-0.37;57.87
61324;BME280;47203;48.428;11.974;2022-12-18T16:39:40;98076.81;;;-0.34;57.96
61324;BME280;47203;48.428;11.974;2022-12-18T16:41:47;98067.44;;;-0.36;58.07
61324;BME280;47203;48.428;11.974;2022-12-18T16:43:55;98070.97;;;-0.37;57.89
61324;BME280;47203;48.428;11.974;2022-12-18T16:46:01;98069.38;;;-0.38;58.19
61324;BME280;47203;48.428;11.974;2022-12-18T16:48:07;98066.97;;;-0.39;58.03
61324;BME280;47203;48.428;11.974;2022-12-18T16:50:13;98071.31;;;-0.40;58.22
61324;BME280;47203;48.428;11.974;2022-12-18T16:52:20;98061.78;;;-0.39;58.11
61324;BME280;47203;48.428;11.974;2022-12-18T16:54:26;98060.16;;;-0.40;58.22
61324;BME280;47203;48.428;11.974;2022-12-18T16:56:34;98054.81;;;-0.39;58.13
61324;BME280;47203;48.428;11.974;2022-12-18T16:58:40;98059.34;;;-0.41;58.05
61324;BME280;47203;48.428;11.974;2022-12-18T17:00:49;98064.53;;;-0.41;58.07
61324;BME280;47203;48.428;11.974;2022-12-18T17:02:54;98069.72;;;-0.41;58.23
61324;BME280;47203;48.428;11.974;2022-12-18T17:05:00;98073.09;;;-0.40;58.12
61324;BME280;47203;48.428;11.974;2022-12-18T17:07:06;98067.13;;;-0.41;58.09
61324;BME280;47203;48.428;11.974;2022-12-18T17:09:14;98074.88;;;-0.41;58.22
61324;BME280;47203;48.428;11.974;2022-12-18T17:11:19;98072.44;;;-0.42;58.12
61324;BME280;47203;48.428;11.974;2022-12-18T17:13:26;98076.97;;;-0.44;58.09
61324;BME280;47203;48.428;11.974;2022-12-18T17:15:35;98076.00;;;-0.43;58.05
61324;BME280;47203;48.428;11.974;2022-12-18T17:17:43;98082.97;;;-0.44;58.15
61324;BME280;47203;48.428;11.974;2022-12-18T17:19:48;98078.59;;;-0.43;58.25
61324;BME280;47203;48.428;11.974;2022-12-18T17:21:54;98076.78;;;-0.43;58.20
61324;BME280;47203;48.428;11.974;2022-12-18T17:24:00;98073.41;;;-0.43;58.04
61324;BME280;47203;48.428;11.974;2022-12-18T17:26:06;98070.81;;;-0.43;58.26
61324;BME280;47203;48.428;11.974;2022-12-18T17:28:12;98072.44;;;-0.42;58.07
61324;BME280;47203;48.428;11.974;2022-12-18T17:30:17;98069.88;;;-0.42;57.98
61324;BME280;47203;48.428;11.974;2022-12-18T17:32:23;98068.88;;;-0.41;58.09
61324;BME280;47203;48.428;11.974;2022-12-18T17:34:32;98067.28;;;-0.42;58.02
61324;BME280;47203;48.428;11.974;2022-12-18T17:36:39;98062.09;;;-0.42;58.21
61324;BME280;47203;48.428;11.974;2022-12-18T17:38:50;98060.47;;;-0.43;58.25
61324;BME280;47203;48.428;11.974;2022-12-18T17:41:00;98058.69;;;-0.43;58.07
61324;BME280;47203;48.428;11.974;2022-12-18T17:43:07;98055.94;;;-0.41;58.27
61324;BME280;47203;48.428;11.974;2022-12-18T17:45:13;98063.69;;;-0.41;58.00
61324;BME280;47203;48.428;11.974;2022-12-18T17:47:18;98064.53;;;-0.41;58.07
61324;BME280;47203;48.428;11.974;2022-12-18T17:49:25;98071.31;;;-0.40;58.16
61324;BME280;47203;48.428;11.974;2022-12-18T17:51:33;98069.72;;;-0.41;58.20
61324;BME280;47203;48.428;11.974;2022-12-18T17:53:39;98065.31;;;-0.40;58.16
61324;BME280;47203;48.428;11.974;2022-12-18T17:55:53;98065.31;;;-0.40;58.17
61324;BME280;47203;48.428;11.974;2022-12-18T17:57:59;98068.88;;;-0.41;58.05
61324;BME280;47203;48.428;11.974;2022-12-18T18:00:07;98065.50;;;-0.42;58.01
61324;BME280;47203;48.428;11.974;2022-12-18T18:02:12;98071.47;;;-0.41;58.17
61324;BME280;47203;48.428;11.974;2022-12-18T18:04:18;98076.63;;;-0.41;58.12
61324;BME280;47203;48.428;11.974;2022-12-18T18:06:25;98068.88;;;-0.41;58.27
61324;BME280;47203;48.428;11.974;2022-12-18T18:08:35;98068.88;;;-0.41;58.18
61324;BME280;47203;48.428;11.974;2022-12-18T18:10:41;98071.47;;;-0.41;58.14
61324;BME280;47203;48.428;11.974;2022-12-18T18:12:46;98073.88;;;-0.40;58.05
61324;BME280;47203;48.428;11.974;2022-12-18T18:15:05;98067.28;;;-0.42;58.29
61324;BME280;47203;48.428;11.974;2022-12-18T18:17:11;98069.03;;;-0.43;58.12
61324;BME280;47203;48.428;11.974;2022-12-18T18:19:19;98073.41;;;-0.43;57.97
61324;BME280;47203;48.428;11.974;2022-12-18T18:21:26;98065.66;;;-0.43;57.89
61324;BME280;47203;48.428;11.974;2022-12-18T18:23:35;98062.91;;;-0.42;57.98
61324;BME280;47203;48.428;11.974;2022-12-18T18:25:42;98065.66;;;-0.43;58.37
61324;BME280;47203;48.428;11.974;2022-12-18T18:27:48;98058.69;;;-0.43;58.20
61324;BME280;47203;48.428;11.974;2022-12-18T18:29:53;98055.31;;;-0.43;58.13
61324;BME280;47203;48.428;11.974;2022-12-18T18:31:59;98051.91;;;-0.44;58.02
61324;BME280;47203;48.428;11.974;2022-12-18T18:34:04;98049.34;;;-0.44;58.14
61324;BME280;47203;48.428;11.974;2022-12-18T18:36:11;98051.09;;;-0.44;57.97
61324;BME280;47203;48.428;11.974;2022-12-18T18:38:16;98060.81;;;-0.46;58.25
61324;BME280;47203;48.428;11.974;2022-12-18T18:40:24;98054.00;;;-0.47;58.22
61324;BME280;47203;48.428;11.974;2022-12-18T18:42:29;98053.19;;;-0.48;58.12
61324;BME280;47203;48.428;11.974;2022-12-18T18:44:35;98047.19;;;-0.48;58.26
61324;BME280;47203;48.428;11.974;2022-12-18T18:46:47;98057.56;;;-0.48;58.02
61324;BME280;47203;48.428;11.974;2022-12-18T18:48:55;98059.34;;;-0.49;58.10
61324;BME280;47203;48.428;11.974;2022-12-18T18:51:05;98057.72;;;-0.50;57.94
61324;BME280;47203;48.428;11.974;2022-12-18T18:53:12;98060.47;;;-0.51;58.03
61324;BME280;47203;48.428;11.974;2022-12-18T18:55:17;98053.81;;;-0.54;57.92
61324;BME280;47203;48.428;11.974;2022-12-18T18:57:29;98052.22;;;-0.55;58.04
61324;BME280;47203;48.428;11.974;2022-12-18T18:59:35;98052.38;;;-0.57;57.90
61324;BME280;47203;48.428;11.974;2022-12-18T19:01:40;98054.31;;;-0.59;57.99
61324;BME280;47203;48.428;11.974;2022-12-18T19:03:47;98046.72;;;-0.60;57.82
61324;BME280;47203;48.428;11.974;2022-12-18T19:05:54;98058.03;;;-0.61;57.89
61324;BME280;47203;48.428;11.974;2022-12-18T19:08:01;98050.28;;;-0.61;58.00
61324;BME280;47203;48.428;11.974;2022-12-18T19:10:08;98045.25;;;-0.63;57.85
61324;BME280;47203;48.428;11.974;2022-12-18T19:12:14;98051.41;;;-0.64;57.79
61324;BME280;47203;48.428;11.974;2022-12-18T19:14:34;98035.22;;;-0.66;58.04
61324;BME280;47203;48.428;11.974;2022-12-18T19:16:40;98037.00;;;-0.66;58.11
61324;BME280;47203;48.428;11.974;2022-12-18T19:18:48;98036.22;;;-0.67;57.96
61324;BME280;47203;48.428;11.974;2022-12-18T19:21:02;98042.50;;;-0.69;57.87
61324;BME280;47203;48.428;11.974;2022-12-18T19:23:09;98032.31;;;-0.71;57.78
61324;BME280;47203;48.428;11.974;2022-12-18T19:25:14;98035.06;;;-0.73;57.76
61324;BME280;47203;48.428;11.974;2022-12-18T19:27:20;98031.81;;;-0.75;57.96
61324;BME280;47203;48.428;11.974;2022-12-18T19:29:25;98031.81;;;-0.75;57.88
61324;BME280;47203;48.428;11.974;2022-12-18T19:31:34;98029.56;;;-0.78;57.64
61324;BME280;47203;48.428;11.974;2022-12-18T19:33:42;98028.91;;;-0.80;57.84
61324;BME280;47203;48.428;11.974;2022-12-18T19:35:48;98030.84;;;-0.82;57.87
61324;BME280;47203;48.428;11.974;2022-12-18T19:37:54;98047.34;;;-0.83;57.79
61324;BME280;47203;48.428;11.974;2022-12-18T19:39:59;98037.94;;;-0.84;57.96
61324;BME280;47203;48.428;11.974;2022-12-18T19:42:13;98048.28;;;-0.84;57.93
61324;BME280;47203;48.428;11.974;2022-12-18T19:44:27;98035.69;;;-0.87;57.61
61324;BME280;47203;48.428;11.974;2022-12-18T19:46:35;98033.09;;;-0.87;57.72
61324;BME280;47203;48.428;11.974;2022-12-18T19:48:43;98028.25;;;-0.90;57.75
61324;BME280;47203;48.428;11.974;2022-12-18T19:50:49;98019.03;;;-0.93;57.33
61324;BME280;47203;48.428;11.974;2022-12-18T19:52:55;98024.34;;;-0.94;57.40
61324;BME280;47203;48.428;11.974;2022-12-18T19:55:00;98016.75;;;-0.96;57.50
61324;BME280;47203;48.428;11.974;2022-12-18T19:57:05;98015.97;;;-0.96;57.53
61324;BME280;47203;48.428;11.974;2022-12-18T19:59:13;98013.53;;;-0.98;57.43
61324;BME280;47203;48.428;11.974;2022-12-18T20:01:20;98019.50;;;-0.97;57.43